Bosque, New Mexico
Current Conditions -  °F | °C
As of 6:35 AM on Saturday 22 Nov 2014 (Local Time) from KE80 Reporting Station
Clear Clear  
Wind Chill: 28°   Ceiling: Unl
Heat Index: 28°   Visibility: 10mi
Dew Point: 18°   Wind: 3mph
Humidity: 64%   Direction: 360°N
Pressure: 30.1"   Gusts: NA
Location:  34.56°N, 106.79°W
Report Text: KE80 221335Z AUTO 36003KT 10SM CLR M02/M08 A3010 RMK AO2 T10201080
Loading
Personal Weather Stations






























Interactive Weather Map New forecast layout! Learn more

10-Day Weather Forecast

Advertisements
Track Severe Weather on mobile